createdAt,value
2023-05-18T00:02:08.871Z,100.00
2023-05-18T00:07:16.279Z,100.00
2023-05-18T00:12:23.730Z,100.00
2023-05-18T00:17:32.252Z,100.00
2023-05-18T00:22:43.026Z,100.00
2023-05-18T00:27:52.359Z,100.00
2023-05-18T00:33:00.366Z,100.00
2023-05-18T00:38:07.785Z,100.00
2023-05-18T00:43:15.434Z,100.00
2023-05-18T00:48:22.747Z,100.00
2023-05-18T00:53:31.485Z,100.00
2023-05-18T00:58:39.563Z,100.00
2023-05-18T01:03:47.214Z,99.93
2023-05-18T01:08:55.311Z,99.23
2023-05-18T01:14:12.248Z,99.17
2023-05-18T01:20:01.805Z,98.90
2023-05-18T01:25:17.848Z,98.41
2023-05-18T01:30:25.876Z,97.86
2023-05-18T01:35:33.122Z,97.64
2023-05-18T01:40:49.584Z,97.66
2023-05-18T01:46:03.423Z,97.77
2023-05-18T01:51:15.423Z,97.93
2023-05-18T01:56:23.850Z,97.57
2023-05-18T02:13:29.681Z,97.50
2023-05-18T02:18:35.841Z,97.31
2023-05-18T02:23:40.257Z,97.11
2023-05-18T02:28:44.144Z,97.29
2023-05-18T02:33:48.205Z,97.21
2023-05-18T02:38:52.039Z,97.07
2023-05-18T02:43:56.181Z,97.50
2023-05-18T02:49:01.522Z,97.85
2023-05-18T02:54:07.200Z,98.37
2023-05-18T02:59:11.453Z,98.07
2023-05-18T03:04:16.799Z,98.81
2023-05-18T03:09:20.908Z,99.06
2023-05-18T03:14:24.735Z,99.27
2023-05-18T03:19:29.393Z,99.74
2023-05-18T03:24:40.187Z,99.91
2023-05-18T03:29:45.336Z,99.97
2023-05-18T03:34:50.775Z,100.00
2023-05-18T03:39:55.346Z,100.00
2023-05-18T03:44:59.593Z,100.00
2023-05-18T03:50:04.239Z,100.00
2023-05-18T03:55:11.815Z,100.00
2023-05-18T04:00:18.422Z,98.56
2023-05-18T04:05:22.419Z,97.78
2023-05-18T04:10:26.603Z,98.10
2023-05-18T04:15:33.295Z,97.90
2023-05-18T04:20:38.195Z,97.94
2023-05-18T04:25:43.458Z,96.04
2023-05-18T04:30:47.545Z,92.75
2023-05-18T04:35:54.683Z,93.12
2023-05-18T04:41:00.195Z,93.55
2023-05-18T04:46:06.760Z,92.44
2023-05-18T04:51:11.373Z,93.49
2023-05-18T04:56:15.205Z,94.27
2023-05-18T05:01:19.514Z,95.06
2023-05-18T05:06:23.360Z,96.07
2023-05-18T05:11:27.212Z,95.86
2023-05-18T05:16:31.273Z,95.47
2023-05-18T05:21:35.836Z,95.64
2023-05-18T05:26:39.712Z,93.80
2023-05-18T05:31:43.689Z,89.78
2023-05-18T05:36:47.626Z,89.14
2023-05-18T05:41:51.620Z,88.66
2023-05-18T05:46:55.838Z,88.10
2023-05-18T05:52:00.326Z,85.82
2023-05-18T05:57:04.365Z,85.73
2023-05-18T06:02:08.224Z,85.12
2023-05-18T06:07:12.425Z,85.27
2023-05-18T06:12:16.261Z,86.07
2023-05-18T06:17:20.566Z,86.81
2023-05-18T06:22:25.093Z,88.14
2023-05-18T06:27:30.059Z,87.34
2023-05-18T06:32:33.936Z,85.29
2023-05-18T06:37:37.823Z,85.23
2023-05-18T06:42:41.856Z,84.28
2023-05-18T06:47:46.165Z,84.44
2023-05-18T06:52:51.430Z,84.22
2023-05-18T06:57:57.965Z,85.24
2023-05-18T07:03:03.122Z,85.89
2023-05-18T07:08:07.235Z,84.91
2023-05-18T07:13:12.023Z,85.58
2023-05-18T07:18:16.015Z,85.16
2023-05-18T07:23:20.786Z,84.81
2023-05-18T07:28:24.693Z,85.77
2023-05-18T07:33:28.977Z,87.45
2023-05-18T07:38:32.901Z,86.32
2023-05-18T07:43:36.865Z,86.57
2023-05-18T07:48:41.201Z,86.49
2023-05-18T07:53:46.188Z,85.54
2023-05-18T08:04:36.237Z,86.02
2023-05-18T08:09:44.782Z,86.83
2023-05-18T08:14:52.418Z,86.91
2023-05-18T08:20:00.281Z,86.70
2023-05-18T08:25:10.690Z,86.40
2023-05-18T08:30:21.837Z,87.70
2023-05-18T08:35:29.750Z,88.37
2023-05-18T08:40:49.802Z,88.45
2023-05-18T08:46:05.890Z,88.19
2023-05-18T08:51:14.712Z,86.09
2023-05-18T08:56:23.888Z,86.40
2023-05-18T09:01:31.667Z,87.78
2023-05-18T09:06:39.635Z,89.17
2023-05-18T09:11:48.457Z,87.15
2023-05-18T09:16:56.534Z,87.24
2023-05-18T09:22:04.560Z,88.00
2023-05-18T09:27:14.203Z,89.58
2023-05-18T09:32:22.061Z,88.35
2023-05-18T09:37:30.565Z,87.66
2023-05-18T09:42:42.316Z,88.25
2023-05-18T09:47:51.618Z,88.36
2023-05-18T09:52:59.311Z,89.44
2023-05-18T09:58:09.093Z,89.27
2023-05-18T10:03:24.343Z,90.29
2023-05-18T10:08:32.011Z,89.96
2023-05-18T10:13:43.026Z,88.75
2023-05-18T10:18:51.170Z,87.84
2023-05-18T10:23:59.574Z,89.24
2023-05-18T10:29:08.409Z,89.43
2023-05-18T10:34:18.980Z,88.56
2023-05-18T10:39:28.091Z,88.71
2023-05-18T10:44:37.722Z,89.22
2023-05-18T10:49:48.790Z,89.37
2023-05-18T10:54:56.886Z,89.70
2023-05-18T11:00:06.227Z,90.63
2023-05-18T11:05:15.186Z,90.61
2023-05-18T11:10:23.026Z,90.81
2023-05-18T11:16:06.850Z,89.88
2023-05-18T11:21:51.764Z,88.94
2023-05-18T11:27:00.727Z,90.22
2023-05-18T11:32:30.660Z,89.69
2023-05-18T11:37:54.439Z,90.23
2023-05-18T11:43:02.612Z,90.98
2023-05-18T11:48:12.649Z,90.84
2023-05-18T11:53:21.011Z,90.86
2023-05-18T11:58:31.697Z,91.80
2023-05-18T12:03:41.532Z,91.83
2023-05-18T12:08:49.379Z,92.33
2023-05-18T12:13:58.102Z,92.68
2023-05-18T12:19:05.483Z,93.78
2023-05-18T12:24:13.814Z,94.43
2023-05-18T12:29:23.775Z,94.58
2023-05-18T12:34:32.974Z,94.69
2023-05-18T12:39:40.590Z,95.10
2023-05-18T12:44:48.355Z,95.02
2023-05-18T12:49:55.846Z,95.24
2023-05-18T12:55:03.802Z,95.21
2023-05-18T13:00:17.530Z,95.89
2023-05-18T13:05:28.529Z,96.44
2023-05-18T13:10:36.541Z,96.73
2023-05-18T13:15:44.827Z,97.45
2023-05-18T13:20:56.659Z,97.25
2023-05-18T13:26:04.188Z,96.41
2023-05-18T13:31:12.943Z,96.10
2023-05-18T13:36:21.569Z,96.15
2023-05-18T13:41:29.170Z,96.31
2023-05-18T13:46:38.674Z,96.10
2023-05-18T13:51:46.413Z,96.14
2023-05-18T13:56:54.778Z,96.38
2023-05-18T14:02:02.564Z,96.39
2023-05-18T14:07:11.306Z,96.66
2023-05-18T14:12:20.084Z,97.01
2023-05-18T14:17:30.072Z,96.67
2023-05-18T14:22:37.856Z,95.97
2023-05-18T14:27:46.005Z,95.44
2023-05-18T14:32:53.399Z,95.26
2023-05-18T14:38:00.849Z,94.50
2023-05-18T14:43:08.160Z,94.47
2023-05-18T14:53:51.487Z,94.59
2023-05-18T14:58:58.926Z,94.96
2023-05-18T15:04:06.668Z,94.46
2023-05-18T15:09:15.335Z,93.89
2023-05-18T15:14:22.919Z,93.15
2023-05-18T15:19:30.651Z,93.27
2023-05-18T15:24:38.203Z,93.21
2023-05-18T15:29:46.932Z,93.27
2023-05-18T15:34:54.613Z,93.01
2023-05-18T15:40:02.589Z,92.17
2023-05-18T15:45:11.873Z,92.33
2023-05-18T15:50:19.745Z,91.45
2023-05-18T15:55:27.710Z,90.58
2023-05-18T16:00:35.884Z,90.61
2023-05-18T16:05:45.266Z,91.32
2023-05-18T16:10:54.287Z,91.54
2023-05-18T16:16:02.126Z,91.31
2023-05-18T16:21:11.277Z,90.84
2023-05-18T16:26:19.206Z,89.83
2023-05-18T16:31:27.114Z,89.30
2023-05-18T16:36:34.840Z,88.28
2023-05-18T16:41:42.580Z,88.26
2023-05-18T16:46:50.230Z,88.37
2023-05-18T16:51:57.879Z,88.61
2023-05-18T16:57:06.421Z,88.12
2023-05-18T17:02:14.608Z,87.84
2023-05-18T17:07:23.003Z,87.91
2023-05-18T17:12:31.031Z,87.62
2023-05-18T17:17:40.017Z,87.65
2023-05-18T17:22:49.403Z,88.24
2023-05-18T17:27:59.019Z,87.83
2023-05-18T17:33:06.832Z,87.95
2023-05-18T17:38:17.601Z,88.65
2023-05-18T17:43:25.010Z,89.13
2023-05-18T17:48:32.577Z,89.47
2023-05-18T17:53:43.088Z,89.44
2023-05-18T17:58:50.830Z,89.86
2023-05-18T18:03:58.794Z,90.42
2023-05-18T18:09:06.974Z,90.29
2023-05-18T18:14:17.951Z,90.40
2023-05-18T18:19:26.850Z,90.68
2023-05-18T18:24:34.584Z,90.93
2023-05-18T18:29:42.143Z,91.02
2023-05-18T18:34:49.591Z,91.08
2023-05-18T18:39:57.352Z,91.33
2023-05-18T18:45:04.918Z,91.58
2023-05-18T18:50:13.587Z,91.86
2023-05-18T18:55:23.068Z,91.62
2023-05-18T19:00:30.248Z,92.00
2023-05-18T19:05:37.677Z,92.30
2023-05-18T19:10:45.732Z,92.28
2023-05-18T19:15:52.992Z,92.04
2023-05-18T19:21:01.606Z,92.38
2023-05-18T19:26:10.652Z,92.18
2023-05-18T19:31:17.834Z,92.29
2023-05-18T19:36:25.177Z,92.37
2023-05-18T19:41:32.509Z,91.78
2023-05-18T19:54:48.236Z,92.83
2023-05-18T19:59:55.648Z,93.09
2023-05-18T20:05:04.372Z,92.59
2023-05-18T20:10:12.389Z,92.68
2023-05-18T20:15:20.143Z,92.44
2023-05-18T20:20:31.064Z,92.48
2023-05-18T20:25:38.741Z,92.50
2023-05-18T20:30:47.245Z,92.37
2023-05-18T20:35:54.937Z,92.50
2023-05-18T20:41:02.540Z,92.85
2023-05-18T20:49:25.122Z,93.04
2023-05-18T20:54:34.609Z,93.08
2023-05-18T20:59:42.049Z,93.43
2023-05-18T21:04:54.632Z,93.58
2023-05-18T21:10:02.745Z,93.78
2023-05-18T21:15:11.881Z,93.87
2023-05-18T21:20:19.553Z,93.87
2023-05-18T21:25:27.524Z,93.53
2023-05-18T21:30:34.824Z,93.53
2023-05-18T21:35:43.011Z,93.21
2023-05-18T21:40:50.486Z,93.02
2023-05-18T21:54:45.445Z,92.88
2023-05-18T21:59:53.738Z,92.57
2023-05-18T22:05:01.592Z,92.81
2023-05-18T22:10:11.839Z,92.38
2023-05-18T22:15:22.690Z,92.55
2023-05-18T22:20:32.142Z,92.59
2023-05-18T22:25:40.196Z,92.90
2023-05-18T22:30:48.014Z,92.40
2023-05-18T22:35:55.602Z,92.94
2023-05-18T22:41:03.120Z,92.62
2023-05-18T22:46:11.208Z,93.08
2023-05-18T22:51:19.246Z,92.42
2023-05-18T22:56:27.802Z,92.37
2023-05-18T23:01:38.030Z,93.03
2023-05-18T23:06:49.015Z,93.51
2023-05-18T23:11:56.765Z,93.51
2023-05-18T23:17:05.004Z,93.13
2023-05-18T23:22:12.268Z,92.93
2023-05-18T23:27:20.753Z,92.95
2023-05-18T23:32:30.058Z,93.20
2023-05-18T23:37:41.807Z,92.87
2023-05-18T23:42:50.059Z,93.00
2023-05-18T23:53:36.461Z,91.90
2023-05-18T23:58:46.373Z,92.22
